createdAt,value
2018-07-16T00:00:22.200Z,21.20
2018-07-16T00:02:50.537Z,21.20
2018-07-16T00:05:18.756Z,21.10
2018-07-16T00:07:47.004Z,21.10
2018-07-16T00:10:15.256Z,21.10
2018-07-16T00:12:43.513Z,21.10
2018-07-16T00:15:11.801Z,21.00
2018-07-16T00:17:40.009Z,21.00
2018-07-16T00:20:08.677Z,21.00
2018-07-16T00:22:36.946Z,21.10
2018-07-16T00:25:05.219Z,21.10
2018-07-16T00:27:33.516Z,21.10
2018-07-16T00:30:01.769Z,21.00
2018-07-16T00:32:29.987Z,21.00
2018-07-16T00:34:58.231Z,20.90
2018-07-16T00:37:26.508Z,20.90
2018-07-16T00:39:54.784Z,20.90
2018-07-16T00:42:23.133Z,20.80
2018-07-16T00:44:51.353Z,20.70
2018-07-16T00:47:19.577Z,20.60
2018-07-16T00:49:47.829Z,20.60
2018-07-16T00:52:16.080Z,20.60
2018-07-16T00:54:44.316Z,20.60
2018-07-16T00:57:12.540Z,20.60
2018-07-16T00:59:40.788Z,20.70
2018-07-16T01:02:09.068Z,20.70
2018-07-16T01:04:37.337Z,20.70
2018-07-16T01:07:05.565Z,20.70
2018-07-16T01:09:33.809Z,20.70
2018-07-16T01:12:02.097Z,20.70
2018-07-16T01:14:30.504Z,20.80
2018-07-16T01:16:58.741Z,20.70
2018-07-16T01:19:26.961Z,20.70
2018-07-16T01:21:55.364Z,20.60
2018-07-16T01:24:23.595Z,20.60
2018-07-16T01:26:52.837Z,20.60
2018-07-16T01:29:21.084Z,20.70
2018-07-16T01:31:49.304Z,20.70
2018-07-16T01:34:17.520Z,20.70
2018-07-16T01:36:45.743Z,20.70
2018-07-16T01:39:14.164Z,20.60
2018-07-16T01:41:42.425Z,20.60
2018-07-16T01:44:10.668Z,20.60
2018-07-16T01:46:38.892Z,20.60
2018-07-16T01:49:07.116Z,20.60
2018-07-16T01:51:35.344Z,20.60
2018-07-16T01:54:03.908Z,20.60
2018-07-16T01:56:32.142Z,20.60
2018-07-16T01:59:00.553Z,20.60
2018-07-16T02:01:28.768Z,20.60
2018-07-16T02:03:56.974Z,20.60
2018-07-16T02:06:25.827Z,20.60
2018-07-16T02:08:54.053Z,20.60
2018-07-16T02:11:22.833Z,20.60
2018-07-16T02:13:51.058Z,20.60
2018-07-16T02:16:19.278Z,20.50
2018-07-16T02:18:47.708Z,20.50
2018-07-16T02:21:15.973Z,20.50
2018-07-16T02:23:44.185Z,20.50
2018-07-16T02:26:13.068Z,20.50
2018-07-16T02:28:41.329Z,20.40
2018-07-16T02:31:09.557Z,20.40
2018-07-16T02:33:38.120Z,20.30
2018-07-16T02:36:06.337Z,20.30
2018-07-16T02:38:34.635Z,20.30
2018-07-16T02:41:02.866Z,20.30
2018-07-16T02:43:31.409Z,20.30
2018-07-16T02:45:59.733Z,20.30
2018-07-16T02:48:27.958Z,20.30
2018-07-16T02:50:56.201Z,20.30
2018-07-16T02:53:24.550Z,20.30
2018-07-16T02:55:52.781Z,20.30
2018-07-16T02:58:21.031Z,20.30
2018-07-16T03:00:49.236Z,20.40
2018-07-16T03:03:17.493Z,20.40
2018-07-16T03:05:45.709Z,20.40
2018-07-16T03:08:13.940Z,20.40
2018-07-16T03:10:42.152Z,20.40
2018-07-16T03:13:10.396Z,20.40
2018-07-16T03:15:38.645Z,20.40
2018-07-16T03:18:06.949Z,20.30
2018-07-16T03:20:35.101Z,20.30
2018-07-16T03:23:03.343Z,20.30
2018-07-16T03:25:31.561Z,20.30
2018-07-16T03:27:59.777Z,20.20
2018-07-16T03:30:28.005Z,20.20
2018-07-16T03:32:56.300Z,20.10
2018-07-16T03:35:24.533Z,20.10
2018-07-16T03:37:52.728Z,20.20
2018-07-16T03:40:20.952Z,20.10
2018-07-16T03:45:17.473Z,20.10
2018-07-16T03:47:45.689Z,20.10
2018-07-16T03:50:13.910Z,20.10
2018-07-16T03:52:42.108Z,20.00
2018-07-16T03:55:10.329Z,20.00
2018-07-16T03:57:38.764Z,20.10
2018-07-16T04:00:06.992Z,20.10
2018-07-16T04:02:35.200Z,20.10
2018-07-16T04:05:03.435Z,20.10
2018-07-16T04:07:31.660Z,20.10
2018-07-16T04:09:59.956Z,20.10
2018-07-16T04:12:28.164Z,20.10
2018-07-16T04:14:56.392Z,20.20
2018-07-16T04:17:24.611Z,20.20
2018-07-16T04:19:53.032Z,20.20
2018-07-16T04:22:21.251Z,20.20
2018-07-16T04:24:49.695Z,20.20
2018-07-16T04:27:17.924Z,20.20
2018-07-16T04:29:46.153Z,20.20
2018-07-16T04:32:14.396Z,20.30
2018-07-16T04:34:42.712Z,20.20
2018-07-16T04:37:11.006Z,20.30
2018-07-16T04:39:39.216Z,20.30
2018-07-16T04:42:07.644Z,20.30
2018-07-16T04:47:03.889Z,20.30
2018-07-16T04:49:32.113Z,20.40
2018-07-16T04:52:00.358Z,20.40
2018-07-16T04:54:28.552Z,20.40
2018-07-16T04:56:56.781Z,20.40
2018-07-16T04:59:25.392Z,20.40
2018-07-16T05:01:53.648Z,20.50
2018-07-16T05:04:21.864Z,20.50
2018-07-16T05:06:50.093Z,20.50
2018-07-16T05:09:18.317Z,20.50
2018-07-16T05:11:46.660Z,20.50
2018-07-16T05:14:14.892Z,20.50
2018-07-16T05:16:43.117Z,20.50
2018-07-16T05:19:11.389Z,20.60
2018-07-16T05:21:39.645Z,20.50
2018-07-16T05:24:08.467Z,20.50
2018-07-16T05:26:36.626Z,20.60
2018-07-16T05:29:05.091Z,20.60
2018-07-16T05:31:33.294Z,20.60
2018-07-16T05:34:01.516Z,20.60
2018-07-16T05:36:29.745Z,20.60
2018-07-16T05:38:57.974Z,20.60
2018-07-16T05:41:26.188Z,20.60
2018-07-16T05:43:54.762Z,20.70
2018-07-16T05:46:23.006Z,20.70
2018-07-16T05:48:51.272Z,20.70
2018-07-16T05:51:19.501Z,20.70
2018-07-16T05:53:47.720Z,20.70
2018-07-16T05:56:15.945Z,20.70
2018-07-16T05:58:44.201Z,20.70
2018-07-16T06:01:12.629Z,20.70
2018-07-16T06:03:40.888Z,20.70
2018-07-16T06:06:09.159Z,20.70
2018-07-16T06:08:37.432Z,20.70
2018-07-16T06:11:05.702Z,20.80
2018-07-16T06:13:34.070Z,20.80
2018-07-16T06:16:02.641Z,20.80
2018-07-16T06:18:30.894Z,20.80
2018-07-16T06:20:59.165Z,20.80
2018-07-16T06:23:27.394Z,20.90
2018-07-16T06:25:56.728Z,20.80
2018-07-16T06:28:25.033Z,20.80
2018-07-16T06:30:53.294Z,20.80
2018-07-16T06:33:21.529Z,20.70
2018-07-16T06:35:49.768Z,20.80
2018-07-16T06:38:18.212Z,20.80
2018-07-16T06:40:46.691Z,20.80
2018-07-16T06:43:15.034Z,20.90
2018-07-16T06:45:43.296Z,20.90
2018-07-16T06:48:11.521Z,20.90
2018-07-16T06:50:39.771Z,20.90
2018-07-16T06:53:08.022Z,20.90
2018-07-16T06:55:36.296Z,20.90
2018-07-16T06:58:04.790Z,20.90
2018-07-16T07:00:33.053Z,20.90
2018-07-16T07:03:02.253Z,20.90
2018-07-16T07:05:30.504Z,21.00
2018-07-16T07:07:58.771Z,21.00
2018-07-16T07:10:27.185Z,21.00
2018-07-16T07:12:55.420Z,21.00
2018-07-16T07:15:23.638Z,21.10
2018-07-16T07:17:52.035Z,21.10
2018-07-16T07:20:20.411Z,21.10
2018-07-16T07:22:48.657Z,21.10
2018-07-16T07:25:16.957Z,21.20
2018-07-16T07:30:13.165Z,21.30
2018-07-16T07:32:41.397Z,21.30
2018-07-16T07:35:09.640Z,21.20
2018-07-16T07:37:37.870Z,21.20
2018-07-16T07:40:06.300Z,21.20
2018-07-16T07:42:34.572Z,21.20
2018-07-16T07:45:02.792Z,21.20
2018-07-16T07:47:31.243Z,21.20
2018-07-16T07:49:59.716Z,21.20
2018-07-16T07:52:27.983Z,21.20
2018-07-16T07:54:56.448Z,21.20
2018-07-16T07:57:24.497Z,21.20
2018-07-16T07:59:52.719Z,21.20
2018-07-16T08:02:20.957Z,21.20
2018-07-16T08:04:49.169Z,21.30
2018-07-16T08:07:17.427Z,21.30
2018-07-16T08:09:45.658Z,21.30
2018-07-16T08:12:14.397Z,21.20
2018-07-16T08:14:43.790Z,21.20
2018-07-16T08:17:12.374Z,21.20
2018-07-16T08:19:40.624Z,21.30
2018-07-16T08:22:08.940Z,21.30
2018-07-16T08:24:38.265Z,21.30
2018-07-16T08:27:06.724Z,21.30
2018-07-16T08:29:35.005Z,21.30
2018-07-16T08:32:03.477Z,21.30
2018-07-16T08:34:31.756Z,21.40
2018-07-16T08:37:00.005Z,21.40
2018-07-16T08:39:28.265Z,21.40
2018-07-16T08:41:56.545Z,21.40
2018-07-16T08:44:24.760Z,21.40
2018-07-16T08:46:53.093Z,21.40
2018-07-16T08:51:49.372Z,21.50
2018-07-16T08:54:17.616Z,21.50
2018-07-16T08:56:45.937Z,21.50
2018-07-16T08:59:14.251Z,21.50
2018-07-16T09:01:42.475Z,21.60
2018-07-16T09:04:10.788Z,21.60
2018-07-16T09:06:38.981Z,21.60
2018-07-16T09:09:07.233Z,21.60
2018-07-16T09:11:35.603Z,21.70
2018-07-16T09:14:03.872Z,21.70
2018-07-16T09:16:32.107Z,21.80
2018-07-16T09:19:00.338Z,21.80
2018-07-16T09:21:28.823Z,21.80
2018-07-16T09:23:57.791Z,21.80
2018-07-16T09:26:26.219Z,21.90
2018-07-16T09:28:54.649Z,21.90
2018-07-16T09:31:22.883Z,22.00
2018-07-16T09:33:51.129Z,22.00
2018-07-16T09:36:19.400Z,22.00
2018-07-16T09:38:47.805Z,22.00
2018-07-16T09:41:16.137Z,22.10
2018-07-16T09:43:45.424Z,22.10
2018-07-16T09:46:13.794Z,22.20
2018-07-16T09:48:42.110Z,22.20
2018-07-16T09:51:10.560Z,22.30
2018-07-16T09:53:38.807Z,22.40
2018-07-16T09:56:07.495Z,22.40
2018-07-16T09:58:35.717Z,22.50
2018-07-16T10:01:09.226Z,22.50
2018-07-16T10:03:37.459Z,22.60
2018-07-16T10:06:05.964Z,22.60
2018-07-16T10:08:34.288Z,22.60
2018-07-16T10:11:02.463Z,22.70
2018-07-16T10:13:30.701Z,22.70
2018-07-16T10:15:58.949Z,22.70
2018-07-16T10:18:27.188Z,22.80
2018-07-16T10:20:55.551Z,22.80
2018-07-16T10:23:23.872Z,22.90
2018-07-16T10:25:52.138Z,22.90
2018-07-16T10:28:20.395Z,22.90
2018-07-16T10:30:48.649Z,22.90
2018-07-16T10:33:16.905Z,23.00
2018-07-16T10:35:45.148Z,23.10
2018-07-16T10:38:13.396Z,23.10
2018-07-16T10:40:41.652Z,23.10
2018-07-16T10:43:09.864Z,23.10
2018-07-16T10:45:38.205Z,23.20
2018-07-16T10:48:06.628Z,23.20
2018-07-16T10:50:34.847Z,23.30
2018-07-16T10:53:03.116Z,23.30
2018-07-16T10:55:31.341Z,23.30
2018-07-16T10:57:59.593Z,23.30
2018-07-16T11:00:28.129Z,23.40
2018-07-16T11:02:56.678Z,23.40
2018-07-16T11:05:24.954Z,23.40
2018-07-16T11:07:53.467Z,23.50
2018-07-16T11:10:21.712Z,23.50
2018-07-16T11:12:50.114Z,23.50
2018-07-16T11:15:18.408Z,23.50
2018-07-16T11:17:46.617Z,23.50
2018-07-16T11:20:14.845Z,23.50
2018-07-16T11:22:43.101Z,23.50
2018-07-16T11:27:39.336Z,23.50
2018-07-16T11:30:08.133Z,23.50
2018-07-16T11:32:36.413Z,23.50
2018-07-16T11:35:04.705Z,23.50
2018-07-16T11:37:33.090Z,23.50
2018-07-16T11:40:01.319Z,23.50
2018-07-16T11:42:29.553Z,23.50
2018-07-16T11:44:57.760Z,23.50
2018-07-16T11:47:26.179Z,23.50
2018-07-16T11:49:54.365Z,23.50
2018-07-16T11:52:22.950Z,23.50
2018-07-16T11:54:51.045Z,23.50
2018-07-16T11:57:19.278Z,23.60
2018-07-16T11:59:47.586Z,23.60
2018-07-16T12:02:16.166Z,23.60
2018-07-16T12:04:44.405Z,23.70
2018-07-16T12:07:12.655Z,23.80
2018-07-16T12:09:40.998Z,23.80
2018-07-16T12:12:09.318Z,23.80
2018-07-16T12:14:38.332Z,23.80
2018-07-16T12:17:06.898Z,23.90
2018-07-16T12:19:35.495Z,23.90
2018-07-16T12:22:03.875Z,24.00
2018-07-16T12:24:32.112Z,24.00
2018-07-16T12:27:00.590Z,24.10
2018-07-16T12:29:29.030Z,24.20
2018-07-16T12:31:57.332Z,24.20
2018-07-16T12:34:25.917Z,24.20
2018-07-16T12:36:54.267Z,24.20
2018-07-16T12:39:22.566Z,24.20
2018-07-16T12:41:50.922Z,24.20
2018-07-16T12:44:20.124Z,24.20
2018-07-16T12:46:48.636Z,24.30
2018-07-16T12:49:17.562Z,24.30
2018-07-16T12:51:45.810Z,24.30
2018-07-16T12:54:14.045Z,24.40
2018-07-16T12:56:42.306Z,24.40
2018-07-16T12:59:10.513Z,24.50
2018-07-16T13:04:07.197Z,24.60
2018-07-16T13:06:35.476Z,24.70
2018-07-16T13:09:04.044Z,24.70
2018-07-16T13:11:32.285Z,24.70
2018-07-16T13:14:00.501Z,24.80
2018-07-16T13:16:28.730Z,24.80
2018-07-16T13:18:57.289Z,24.90
2018-07-16T13:21:25.549Z,24.90
2018-07-16T13:23:53.772Z,25.00
2018-07-16T13:26:22.012Z,25.00
2018-07-16T13:28:50.229Z,25.10
2018-07-16T13:31:18.512Z,25.20
2018-07-16T13:33:46.872Z,25.30
2018-07-16T13:36:15.089Z,25.30
2018-07-16T13:38:43.352Z,25.30
2018-07-16T13:41:11.558Z,25.30
2018-07-16T13:43:39.838Z,25.30
2018-07-16T13:46:08.258Z,25.40
2018-07-16T13:48:36.465Z,25.40
2018-07-16T13:51:04.665Z,25.50
2018-07-16T13:53:32.904Z,25.50
2018-07-16T13:56:01.261Z,25.60
2018-07-16T13:58:29.497Z,25.60
2018-07-16T14:00:57.802Z,25.60
2018-07-16T14:03:26.018Z,25.70
2018-07-16T14:05:54.252Z,25.70
2018-07-16T14:08:22.504Z,25.70
2018-07-16T14:10:50.748Z,25.70
2018-07-16T14:13:18.985Z,25.70
2018-07-16T14:15:47.193Z,25.70
2018-07-16T14:18:15.713Z,25.70
2018-07-16T14:20:43.988Z,25.80
2018-07-16T14:23:12.197Z,25.90
2018-07-16T14:25:40.510Z,26.00
2018-07-16T14:28:08.739Z,26.10
2018-07-16T14:30:36.972Z,26.20
2018-07-16T14:33:05.229Z,26.20
2018-07-16T14:35:33.444Z,26.20
2018-07-16T14:38:01.661Z,26.20
2018-07-16T14:40:29.943Z,26.20
2018-07-16T14:42:58.176Z,26.30
2018-07-16T14:45:26.441Z,26.40
2018-07-16T14:50:22.735Z,26.50
2018-07-16T14:52:51.064Z,27.10
2018-07-16T14:55:19.329Z,28.10
2018-07-16T14:57:47.576Z,28.30
2018-07-16T15:00:16.122Z,28.00
2018-07-16T15:02:44.602Z,28.00
2018-07-16T15:05:12.813Z,27.70
2018-07-16T15:07:41.060Z,27.50
2018-07-16T15:10:09.322Z,27.30
2018-07-16T15:12:37.608Z,27.10
2018-07-16T15:15:05.820Z,27.10
2018-07-16T15:17:34.165Z,27.10
2018-07-16T15:20:02.667Z,27.10
2018-07-16T15:22:31.220Z,27.00
2018-07-16T15:24:59.458Z,27.00
2018-07-16T15:27:27.686Z,26.90
2018-07-16T15:29:56.049Z,26.90
2018-07-16T15:32:24.645Z,26.80
2018-07-16T15:34:52.872Z,26.80
2018-07-16T15:37:21.145Z,26.80
2018-07-16T15:39:49.365Z,26.80
2018-07-16T15:42:17.877Z,26.80
2018-07-16T15:44:46.298Z,26.80
2018-07-16T15:49:43.008Z,26.90
2018-07-16T15:52:11.357Z,27.00
2018-07-16T15:54:39.589Z,27.00
2018-07-16T15:57:07.808Z,26.90
2018-07-16T15:59:36.082Z,26.90
2018-07-16T16:02:04.309Z,26.90
2018-07-16T16:04:32.744Z,26.90
2018-07-16T16:07:01.013Z,26.90
2018-07-16T16:09:29.289Z,27.00
2018-07-16T16:11:57.489Z,27.10
2018-07-16T16:14:25.801Z,27.10
2018-07-16T16:16:54.025Z,26.90
2018-07-16T16:19:22.394Z,26.80
2018-07-16T16:21:50.629Z,26.60
2018-07-16T16:24:18.857Z,26.40
2018-07-16T16:26:47.092Z,26.30
2018-07-16T16:29:15.584Z,26.10
2018-07-16T16:31:43.823Z,26.00
2018-07-16T16:34:12.108Z,25.90
2018-07-16T16:36:40.409Z,25.70
2018-07-16T16:39:09.393Z,25.60
2018-07-16T16:41:37.604Z,25.40
2018-07-16T16:44:05.896Z,25.30
2018-07-16T16:46:34.163Z,25.20
2018-07-16T16:49:02.412Z,25.10
2018-07-16T16:51:30.624Z,25.00
2018-07-16T16:53:58.867Z,24.90
2018-07-16T16:56:27.121Z,24.80
2018-07-16T16:58:55.332Z,24.80
2018-07-16T17:01:24.145Z,24.70
2018-07-16T17:03:52.397Z,24.80
2018-07-16T17:06:21.057Z,24.80
2018-07-16T17:08:49.424Z,24.80
2018-07-16T17:11:17.734Z,24.80
2018-07-16T17:13:46.076Z,24.80
2018-07-16T17:16:14.296Z,24.80
2018-07-16T17:18:42.849Z,24.90
2018-07-16T17:21:11.333Z,24.90
2018-07-16T17:23:39.823Z,24.90
2018-07-16T17:26:08.148Z,25.00
2018-07-16T17:28:37.341Z,25.00
2018-07-16T17:31:05.580Z,25.00
2018-07-16T17:33:33.802Z,25.00
2018-07-16T17:36:02.021Z,24.90
2018-07-16T17:38:30.413Z,24.90
2018-07-16T17:40:58.880Z,24.90
2018-07-16T17:43:27.097Z,24.90
2018-07-16T17:45:55.365Z,25.00
2018-07-16T17:48:23.609Z,24.90
2018-07-16T17:50:51.993Z,24.90
2018-07-16T17:53:20.368Z,24.90
2018-07-16T17:55:48.543Z,24.90
2018-07-16T17:58:16.765Z,24.80
2018-07-16T18:00:44.997Z,24.80
2018-07-16T18:03:13.294Z,24.70
2018-07-16T18:05:41.514Z,24.70
2018-07-16T18:08:09.741Z,24.60
2018-07-16T18:10:37.973Z,24.60
2018-07-16T18:13:06.228Z,24.50
2018-07-16T18:15:34.467Z,24.50
2018-07-16T18:18:02.715Z,24.50
2018-07-16T18:20:30.959Z,24.50
2018-07-16T18:22:59.238Z,24.40
2018-07-16T18:25:27.468Z,24.30
2018-07-16T18:27:55.696Z,24.30
2018-07-16T18:30:23.916Z,24.20
2018-07-16T18:32:52.152Z,24.10
2018-07-16T18:35:20.455Z,24.00
2018-07-16T18:37:48.805Z,23.90
2018-07-16T18:42:45.400Z,23.80
2018-07-16T18:45:13.617Z,23.80
2018-07-16T18:47:41.853Z,23.70
2018-07-16T18:50:10.208Z,23.70
2018-07-16T18:52:38.508Z,23.70
2018-07-16T18:55:06.784Z,23.60
2018-07-16T18:57:35.085Z,23.70
2018-07-16T19:00:03.641Z,23.60
2018-07-16T19:02:31.840Z,23.60
2018-07-16T19:05:00.105Z,23.50
2018-07-16T19:07:28.320Z,23.50
2018-07-16T19:09:56.544Z,23.40
2018-07-16T19:12:24.769Z,23.40
2018-07-16T19:14:53.018Z,23.40
2018-07-16T19:17:21.633Z,23.40
2018-07-16T19:22:18.081Z,23.30
2018-07-16T19:24:46.289Z,23.30
2018-07-16T19:27:14.557Z,23.20
2018-07-16T19:29:42.809Z,23.20
2018-07-16T19:32:11.653Z,23.20
2018-07-16T19:34:40.072Z,23.20
2018-07-16T19:37:08.557Z,23.20
2018-07-16T19:39:36.752Z,23.20
2018-07-16T19:42:05.009Z,23.20
2018-07-16T19:44:33.204Z,23.20
2018-07-16T19:47:01.432Z,23.20
2018-07-16T19:49:29.626Z,23.20
2018-07-16T19:51:58.849Z,23.10
2018-07-16T19:54:27.332Z,23.00
2018-07-16T19:56:55.826Z,22.90
2018-07-16T19:59:24.044Z,22.80
2018-07-16T20:01:52.253Z,22.70
2018-07-16T20:04:20.497Z,22.70
2018-07-16T20:06:49.429Z,22.70
2018-07-16T20:09:17.748Z,22.60
2018-07-16T20:11:45.893Z,22.50
2018-07-16T20:14:14.145Z,22.30
2018-07-16T20:16:43.336Z,22.20
2018-07-16T20:19:12.128Z,22.10
2018-07-16T20:21:40.415Z,22.10
2018-07-16T20:24:08.956Z,22.00
2018-07-16T20:26:37.173Z,22.00
2018-07-16T20:29:05.650Z,22.00
2018-07-16T20:31:33.905Z,22.00
2018-07-16T20:34:02.202Z,22.00
2018-07-16T20:36:30.796Z,22.10
2018-07-16T20:38:59.081Z,22.00
2018-07-16T20:41:27.329Z,22.00
2018-07-16T20:43:55.642Z,21.90
2018-07-16T20:46:24.040Z,21.90
2018-07-16T20:48:52.292Z,21.80
2018-07-16T20:51:20.542Z,21.60
2018-07-16T20:53:48.773Z,21.60
2018-07-16T20:56:17.005Z,21.50
2018-07-16T20:58:45.271Z,21.40
2018-07-16T21:01:13.532Z,21.40
2018-07-16T21:03:42.009Z,21.40
2018-07-16T21:06:10.231Z,21.40
2018-07-16T21:08:38.495Z,21.40
2018-07-16T21:11:06.925Z,21.40
2018-07-16T21:13:35.154Z,21.30
2018-07-16T21:16:03.392Z,21.20
2018-07-16T21:18:31.605Z,21.10
2018-07-16T21:20:59.844Z,21.00
2018-07-16T21:23:28.109Z,20.90
2018-07-16T21:25:56.352Z,20.90
2018-07-16T21:28:24.632Z,20.80
2018-07-16T21:30:52.881Z,20.80
2018-07-16T21:33:21.105Z,20.70
2018-07-16T21:35:49.380Z,20.80
2018-07-16T21:38:18.634Z,20.80
2018-07-16T21:40:47.014Z,20.70
2018-07-16T21:43:15.146Z,20.70
2018-07-16T21:45:43.381Z,20.60
2018-07-16T21:48:11.681Z,20.60
2018-07-16T21:50:39.949Z,20.60
2018-07-16T21:53:08.364Z,20.60
2018-07-16T21:55:36.673Z,20.60
2018-07-16T21:58:04.899Z,20.60
2018-07-16T22:00:33.278Z,20.60
2018-07-16T22:03:01.701Z,20.60
2018-07-16T22:05:30.214Z,20.60
2018-07-16T22:07:59.459Z,20.50
2018-07-16T22:10:28.136Z,20.40
2018-07-16T22:12:57.848Z,20.30
2018-07-16T22:15:27.811Z,20.20
2018-07-16T22:17:56.857Z,20.10
2018-07-16T22:20:26.157Z,20.10
2018-07-16T22:22:54.542Z,20.00
2018-07-16T22:25:23.543Z,20.00
2018-07-16T22:27:51.791Z,19.90
2018-07-16T22:30:20.180Z,19.80
2018-07-16T22:32:48.469Z,19.80
2018-07-16T22:35:16.732Z,19.80
2018-07-16T22:37:44.944Z,19.70
2018-07-16T22:40:13.185Z,19.70
2018-07-16T22:42:41.423Z,19.70
2018-07-16T22:45:09.849Z,19.70
2018-07-16T22:47:38.201Z,19.70
2018-07-16T22:50:06.685Z,19.70
2018-07-16T22:52:34.931Z,19.60
2018-07-16T22:55:03.162Z,19.70
2018-07-16T22:57:31.413Z,19.50
2018-07-16T22:59:59.684Z,19.50
2018-07-16T23:02:27.934Z,19.50
2018-07-16T23:04:56.154Z,19.50
2018-07-16T23:07:24.981Z,19.40
2018-07-16T23:09:53.233Z,19.40
2018-07-16T23:12:22.385Z,19.50
2018-07-16T23:14:50.649Z,19.50
2018-07-16T23:17:18.853Z,19.40
2018-07-16T23:19:47.069Z,19.40
2018-07-16T23:22:15.281Z,19.40
2018-07-16T23:24:43.532Z,19.50
2018-07-16T23:27:11.753Z,19.50
2018-07-16T23:29:39.984Z,19.50
2018-07-16T23:32:08.226Z,19.50
2018-07-16T23:34:36.452Z,19.30
2018-07-16T23:37:04.749Z,19.30
2018-07-16T23:42:00.944Z,19.20
2018-07-16T23:44:29.168Z,19.20
2018-07-16T23:46:57.393Z,19.20
2018-07-16T23:49:25.653Z,19.20
2018-07-16T23:51:53.876Z,19.20
2018-07-16T23:54:22.085Z,19.20
2018-07-16T23:56:50.326Z,19.20
2018-07-16T23:59:18.580Z,19.20
